createdAt,value
2023-01-28T00:00:09.244Z,98620.72
2023-01-28T00:02:37.430Z,98629.19
2023-01-28T00:05:07.545Z,98613.13
2023-01-28T00:07:36.130Z,98617.88
2023-01-28T00:10:04.799Z,98622.44
2023-01-28T00:12:32.914Z,98609.75
2023-01-28T00:15:02.414Z,98609.72
2023-01-28T00:17:30.887Z,98613.06
2023-01-28T00:19:58.922Z,98617.06
2023-01-28T00:22:27.004Z,98614.16
2023-01-28T00:24:55.167Z,98605.69
2023-01-28T00:27:23.625Z,98606.84
2023-01-28T00:29:51.623Z,98607.44
2023-01-28T00:32:21.034Z,98598.75
2023-01-28T00:34:50.209Z,98602.09
2023-01-28T00:37:18.933Z,98598.19
2023-01-28T00:39:46.911Z,98598.88
2023-01-28T00:42:15.314Z,98603.75
2023-01-28T00:44:43.363Z,98600.22
2023-01-28T00:47:12.461Z,98597.47
2023-01-28T00:49:41.900Z,98603.88
2023-01-28T00:52:09.967Z,98595.16
2023-01-28T00:54:37.921Z,98594.88
2023-01-28T00:57:05.915Z,98597.41
2023-01-28T00:59:34.340Z,98592.31
2023-01-28T01:02:12.435Z,98594.13
2023-01-28T01:04:55.316Z,98588.63
2023-01-28T01:07:32.235Z,98589.03
2023-01-28T01:10:01.040Z,98596.38
2023-01-28T01:12:29.120Z,98601.31
2023-01-28T01:14:57.391Z,98604.00
2023-01-28T01:17:25.951Z,98603.75
2023-01-28T01:19:55.295Z,98612.69
2023-01-28T01:22:23.286Z,98616.84
2023-01-28T01:24:51.262Z,98614.88
2023-01-28T01:27:19.510Z,98617.16
2023-01-28T01:29:47.610Z,98608.94
2023-01-28T01:32:15.623Z,98600.34
2023-01-28T01:34:44.158Z,98594.34
2023-01-28T01:37:13.725Z,98586.22
2023-01-28T01:39:41.761Z,98585.41
2023-01-28T01:42:11.906Z,98584.63
2023-01-28T01:44:59.516Z,98598.19
2023-01-28T01:47:31.157Z,98599.28
2023-01-28T01:49:59.899Z,98597.63
2023-01-28T01:52:33.728Z,98593.03
2023-01-28T01:55:03.148Z,98598.84
2023-01-28T01:57:32.210Z,98599.41
2023-01-28T02:00:06.351Z,98600.31
2023-01-28T02:02:39.558Z,98600.44
2023-01-28T02:05:08.673Z,98590.81
2023-01-28T02:07:38.105Z,98604.56
2023-01-28T02:10:07.075Z,98606.00
2023-01-28T02:12:36.288Z,98614.19
2023-01-28T02:15:05.484Z,98606.19
2023-01-28T02:17:33.565Z,98602.22
2023-01-28T02:20:02.834Z,98609.72
2023-01-28T02:22:51.797Z,98605.03
2023-01-28T02:25:38.867Z,98610.72
2023-01-28T02:28:19.661Z,98610.00
2023-01-28T02:30:53.274Z,98622.63
2023-01-28T02:33:24.738Z,98622.47
2023-01-28T02:35:54.547Z,98614.47
2023-01-28T02:38:27.229Z,98613.69
2023-01-28T02:41:06.543Z,98611.19
2023-01-28T02:43:36.866Z,98611.44
2023-01-28T02:46:30.857Z,98607.66
2023-01-28T02:48:58.917Z,98613.97
2023-01-28T02:51:33.195Z,98621.88
2023-01-28T02:54:04.490Z,98614.94
2023-01-28T02:56:34.137Z,98615.69
2023-01-28T02:59:26.307Z,98624.09
2023-01-28T03:01:58.473Z,98623.28
2023-01-28T03:04:29.706Z,98630.59
2023-01-28T03:06:59.871Z,98629.88
2023-01-28T03:09:28.032Z,98634.06
2023-01-28T03:12:15.247Z,98636.69
2023-01-28T03:15:03.195Z,98618.25
2023-01-28T03:17:51.774Z,98622.50
2023-01-28T03:20:37.502Z,98630.00
2023-01-28T03:23:26.613Z,98621.09
2023-01-28T03:26:12.741Z,98624.06
2023-01-28T03:28:58.341Z,98620.84
2023-01-28T03:31:45.584Z,98620.56
2023-01-28T03:34:30.759Z,98618.69
2023-01-28T03:36:59.856Z,98617.91
2023-01-28T03:39:28.761Z,98613.72
2023-01-28T03:41:58.051Z,98613.56
2023-01-28T03:44:43.489Z,98611.00
2023-01-28T03:47:12.972Z,98613.38
2023-01-28T03:49:42.484Z,98611.69
2023-01-28T03:52:10.491Z,98611.13
2023-01-28T03:54:38.484Z,98616.28
2023-01-28T03:57:07.237Z,98621.88
2023-01-28T03:59:35.446Z,98619.06
2023-01-28T04:02:05.540Z,98618.34
2023-01-28T04:04:34.941Z,98617.72
2023-01-28T04:07:03.047Z,98616.69
2023-01-28T04:09:31.021Z,98624.13
2023-01-28T04:11:59.097Z,98617.06
2023-01-28T04:14:28.080Z,98627.69
2023-01-28T04:16:56.196Z,98626.25
2023-01-28T04:19:24.284Z,98624.63
2023-01-28T04:21:55.107Z,98619.75
2023-01-28T04:24:23.172Z,98624.47
2023-01-28T04:26:51.301Z,98628.00
2023-01-28T04:29:19.370Z,98624.22
2023-01-28T04:31:47.450Z,98628.56
2023-01-28T04:34:15.546Z,98629.34
2023-01-28T04:36:43.632Z,98629.56
2023-01-28T04:39:13.078Z,98635.16
2023-01-28T04:41:41.123Z,98629.75
2023-01-28T04:44:09.342Z,98634.13
2023-01-28T04:46:37.332Z,98635.53
2023-01-28T04:49:05.406Z,98633.78
2023-01-28T04:51:33.469Z,98640.41
2023-01-28T04:54:01.604Z,98644.63
2023-01-28T04:56:30.995Z,98638.00
2023-01-28T04:58:59.088Z,98643.13
2023-01-28T05:01:27.368Z,98644.34
2023-01-28T05:03:55.444Z,98631.97
2023-01-28T05:06:23.456Z,98638.81
2023-01-28T05:08:51.552Z,98637.47
2023-01-28T05:11:19.548Z,98639.25
2023-01-28T05:13:48.972Z,98634.53
2023-01-28T05:16:17.395Z,98635.09
2023-01-28T05:18:48.069Z,98631.16
2023-01-28T05:21:16.118Z,98632.38
2023-01-28T05:23:44.163Z,98632.16
2023-01-28T05:26:13.762Z,98635.66
2023-01-28T05:28:41.819Z,98637.97
2023-01-28T05:31:11.312Z,98633.72
2023-01-28T05:33:39.426Z,98645.97
2023-01-28T05:36:08.464Z,98635.09
2023-01-28T05:38:36.494Z,98635.38
2023-01-28T05:41:04.653Z,98646.53
2023-01-28T05:43:32.743Z,98642.59
2023-01-28T05:46:01.075Z,98650.44
2023-01-28T05:48:30.543Z,98644.56
2023-01-28T05:50:58.649Z,98638.97
2023-01-28T05:53:30.066Z,98639.03
2023-01-28T05:55:58.049Z,98640.31
2023-01-28T05:58:27.448Z,98647.91
2023-01-28T06:00:56.512Z,98646.47
2023-01-28T06:03:24.494Z,98649.25
2023-01-28T06:05:53.934Z,98651.59
2023-01-28T06:08:21.924Z,98650.72
2023-01-28T06:10:49.954Z,98652.34
2023-01-28T06:13:18.053Z,98657.84
2023-01-28T06:15:46.138Z,98647.38
2023-01-28T06:18:14.223Z,98647.47
2023-01-28T06:20:42.615Z,98659.78
2023-01-28T06:23:13.137Z,98659.72
2023-01-28T06:25:41.103Z,98661.41
2023-01-28T06:28:09.134Z,98660.59
2023-01-28T06:30:37.220Z,98659.03
2023-01-28T06:33:05.377Z,98671.13
2023-01-28T06:35:36.084Z,98659.34
2023-01-28T06:38:05.253Z,98659.47
2023-01-28T06:40:35.218Z,98654.72
2023-01-28T06:43:05.927Z,98654.44
2023-01-28T06:45:34.154Z,98657.84
2023-01-28T06:48:04.063Z,98647.53
2023-01-28T06:50:32.337Z,98648.56
2023-01-28T06:53:02.726Z,98650.34
2023-01-28T06:55:30.838Z,98662.84
2023-01-28T06:58:00.152Z,98661.97
2023-01-28T07:00:28.221Z,98658.03
2023-01-28T07:02:57.160Z,98661.53
2023-01-28T07:05:25.246Z,98657.97
2023-01-28T07:07:53.360Z,98666.56
2023-01-28T07:10:21.322Z,98663.88
2023-01-28T07:12:49.404Z,98657.81
2023-01-28T07:15:19.497Z,98657.91
2023-01-28T07:17:47.629Z,98665.94
2023-01-28T07:20:16.156Z,98659.75
2023-01-28T07:22:44.959Z,98652.47
2023-01-28T07:25:13.257Z,98654.81
2023-01-28T07:27:41.370Z,98655.38
2023-01-28T07:30:10.797Z,98648.69
2023-01-28T07:32:40.645Z,98640.19
2023-01-28T07:35:09.599Z,98647.78
2023-01-28T07:37:37.631Z,98645.72
2023-01-28T07:40:06.374Z,98643.78
2023-01-28T07:42:35.220Z,98644.72
2023-01-28T07:45:05.156Z,98649.56
2023-01-28T07:47:33.962Z,98654.28
2023-01-28T07:50:05.421Z,98647.56
2023-01-28T07:52:38.246Z,98651.41
2023-01-28T07:55:07.086Z,98667.28
2023-01-28T07:57:35.663Z,98653.09
2023-01-28T08:00:03.847Z,98661.94
2023-01-28T08:02:34.267Z,98658.41
2023-01-28T08:05:03.877Z,98652.00
2023-01-28T08:07:32.190Z,98658.75
2023-01-28T08:10:00.170Z,98664.91
2023-01-28T08:12:28.177Z,98665.63
2023-01-28T08:14:56.395Z,98679.47
2023-01-28T08:17:24.494Z,98694.63
2023-01-28T08:19:52.935Z,98682.72
2023-01-28T08:22:26.134Z,98683.03
2023-01-28T08:24:54.204Z,98679.63
2023-01-28T08:27:22.745Z,98695.44
2023-01-28T08:29:50.838Z,98686.69
2023-01-28T08:32:19.498Z,98690.16
2023-01-28T08:34:47.654Z,98688.72
2023-01-28T08:37:15.778Z,98694.38
2023-01-28T08:39:46.486Z,98700.16
2023-01-28T08:42:14.588Z,98709.31
2023-01-28T08:44:42.793Z,98712.47
2023-01-28T08:47:12.281Z,98709.88
2023-01-28T08:49:42.013Z,98697.34
2023-01-28T08:52:11.111Z,98700.22
2023-01-28T08:54:39.928Z,98723.63
2023-01-28T08:57:09.410Z,98716.31
2023-01-28T08:59:40.782Z,98722.13
2023-01-28T09:02:19.119Z,98705.22
2023-01-28T09:04:53.907Z,98709.28
2023-01-28T09:07:21.980Z,98717.06
2023-01-28T09:09:50.003Z,98725.09
2023-01-28T09:12:19.518Z,98726.25
2023-01-28T09:14:48.221Z,98724.25
2023-01-28T09:17:16.571Z,98726.00
2023-01-28T09:19:44.635Z,98738.84
2023-01-28T09:22:12.942Z,98752.13
2023-01-28T09:24:41.032Z,98759.03
2023-01-28T09:27:09.099Z,98761.25
2023-01-28T09:29:38.811Z,98758.47
2023-01-28T09:32:07.583Z,98764.34
2023-01-28T09:34:36.357Z,98762.09
2023-01-28T09:37:05.073Z,98756.28
2023-01-28T09:39:33.276Z,98761.41
2023-01-28T09:42:14.480Z,98761.97
2023-01-28T09:44:53.637Z,98767.44
2023-01-28T09:47:24.257Z,98774.22
2023-01-28T09:49:53.373Z,98765.63
2023-01-28T09:52:23.166Z,98761.41
2023-01-28T09:54:51.881Z,98760.13
2023-01-28T09:57:22.275Z,98764.50
2023-01-28T09:59:51.763Z,98755.59
2023-01-28T10:02:39.014Z,98757.56
2023-01-28T10:05:15.644Z,98758.19
2023-01-28T10:07:47.135Z,98764.28
2023-01-28T10:10:22.999Z,98766.97
2023-01-28T10:13:13.082Z,98762.28
2023-01-28T10:16:07.016Z,98758.38
2023-01-28T10:18:36.947Z,98760.06
2023-01-28T10:21:09.265Z,98760.63
2023-01-28T10:23:43.007Z,98766.47
2023-01-28T10:26:16.702Z,98757.38
2023-01-28T10:28:44.911Z,98773.25
2023-01-28T10:31:15.391Z,98765.81
2023-01-28T10:33:44.042Z,98763.91
2023-01-28T10:36:12.428Z,98759.13
2023-01-28T10:38:41.457Z,98764.75
2023-01-28T10:41:11.790Z,98750.69
2023-01-28T10:43:40.895Z,98753.13
2023-01-28T10:46:11.413Z,98755.09
2023-01-28T10:48:44.253Z,98757.47
2023-01-28T10:51:12.282Z,98748.63
2023-01-28T10:53:41.479Z,98742.47
2023-01-28T10:56:10.651Z,98732.97
2023-01-28T10:58:50.639Z,98735.03
2023-01-28T11:01:18.706Z,98736.97
2023-01-28T11:03:55.780Z,98750.59
2023-01-28T11:06:27.837Z,98756.38
2023-01-28T11:08:55.818Z,98748.06
2023-01-28T11:11:25.811Z,98754.25
2023-01-28T11:13:55.599Z,98757.41
2023-01-28T11:16:23.632Z,98755.97
2023-01-28T11:18:53.294Z,98748.41
2023-01-28T11:21:23.753Z,98755.59
2023-01-28T11:23:52.805Z,98760.59
2023-01-28T11:26:22.523Z,98756.19
2023-01-28T11:28:50.827Z,98759.94
2023-01-28T11:31:19.315Z,98763.66
2023-01-28T11:33:49.614Z,98761.50
2023-01-28T11:36:18.387Z,98764.66
2023-01-28T11:38:52.467Z,98768.06
2023-01-28T11:41:24.355Z,98758.38
2023-01-28T11:43:52.950Z,98768.06
2023-01-28T11:46:46.767Z,98768.09
2023-01-28T11:49:17.905Z,98760.44
2023-01-28T11:51:48.699Z,98763.63
2023-01-28T11:54:27.228Z,98757.94
2023-01-28T11:57:03.094Z,98759.06
2023-01-28T11:59:45.376Z,98756.75
2023-01-28T12:02:22.732Z,98753.53
2023-01-28T12:04:58.714Z,98741.03
2023-01-28T12:07:34.969Z,98744.47
2023-01-28T12:10:08.323Z,98742.56
2023-01-28T12:12:44.643Z,98744.78
2023-01-28T12:15:27.846Z,98746.25
2023-01-28T12:18:03.820Z,98734.75
2023-01-28T12:20:32.692Z,98728.25
2023-01-28T12:23:15.348Z,98714.91
2023-01-28T12:25:51.397Z,98723.63
2023-01-28T12:28:30.567Z,98736.38
2023-01-28T12:31:15.031Z,98723.50
2023-01-28T12:33:55.359Z,98730.91
2023-01-28T12:36:30.861Z,98734.31
2023-01-28T12:39:04.818Z,98732.28
2023-01-28T12:41:35.639Z,98727.06
2023-01-28T12:44:04.320Z,98721.53
2023-01-28T12:46:38.460Z,98712.38
2023-01-28T12:49:07.674Z,98699.72
2023-01-28T12:51:39.984Z,98699.03
2023-01-28T12:54:11.651Z,98702.28
2023-01-28T12:56:41.960Z,98696.66
2023-01-28T12:59:12.815Z,98681.97
2023-01-28T13:01:42.903Z,98670.22
2023-01-28T13:04:13.761Z,98662.25
2023-01-28T13:06:43.530Z,98664.94
2023-01-28T13:09:15.383Z,98670.22
2023-01-28T13:11:44.755Z,98672.31
2023-01-28T13:14:12.805Z,98654.09
2023-01-28T13:16:40.853Z,98633.22
2023-01-28T13:19:10.683Z,98621.75
2023-01-28T13:21:49.077Z,98615.38
2023-01-28T13:24:25.850Z,98606.38
2023-01-28T13:26:56.563Z,98607.03
2023-01-28T13:29:31.974Z,98587.53
2023-01-28T13:32:00.987Z,98586.06
2023-01-28T13:34:34.556Z,98578.06
2023-01-28T13:37:06.022Z,98587.50
2023-01-28T13:39:35.656Z,98604.22
2023-01-28T13:42:21.372Z,98620.75
2023-01-28T13:44:49.958Z,98641.84
2023-01-28T13:47:23.229Z,98631.16
2023-01-28T13:49:52.448Z,98640.41
2023-01-28T13:52:26.879Z,98638.53
2023-01-28T13:54:57.300Z,98644.41
2023-01-28T13:58:08.100Z,98645.22
2023-01-28T14:00:38.526Z,98645.78
2023-01-28T14:03:41.998Z,98641.50
2023-01-28T14:06:43.876Z,98667.00
2023-01-28T14:09:30.442Z,98674.56
2023-01-28T14:12:22.607Z,98675.91
2023-01-28T14:15:37.713Z,98679.91
2023-01-28T14:18:06.039Z,98691.00
2023-01-28T14:20:45.412Z,98680.91
2023-01-28T14:23:19.022Z,98682.59
2023-01-28T14:25:59.538Z,98681.63
2023-01-28T14:28:41.049Z,98686.91
2023-01-28T14:31:13.139Z,98693.50
2023-01-28T14:33:41.282Z,98684.41
2023-01-28T14:36:11.497Z,98690.34
2023-01-28T14:38:41.179Z,98684.31
2023-01-28T14:41:09.520Z,98677.25
2023-01-28T14:43:38.108Z,98676.56
2023-01-28T14:46:14.061Z,98679.34
2023-01-28T14:48:46.034Z,98678.69
2023-01-28T14:51:24.899Z,98665.44
2023-01-28T14:54:13.264Z,98657.19
2023-01-28T14:56:49.863Z,98657.88
2023-01-28T14:59:23.173Z,98644.69
2023-01-28T15:01:58.815Z,98649.06
2023-01-28T15:04:28.559Z,98632.91
2023-01-28T15:06:56.643Z,98625.28
2023-01-28T15:09:24.743Z,98625.28
2023-01-28T15:11:54.849Z,98622.34
2023-01-28T15:14:29.757Z,98622.78
2023-01-28T15:16:59.241Z,98625.28
2023-01-28T15:19:29.089Z,98634.06
2023-01-28T15:21:57.439Z,98645.72
2023-01-28T15:24:25.502Z,98645.72
2023-01-28T15:26:53.546Z,98652.72
2023-01-28T15:29:28.327Z,98660.19
2023-01-28T15:31:56.427Z,98657.66
2023-01-28T15:34:30.690Z,98657.53
2023-01-28T15:36:58.761Z,98660.03
2023-01-28T15:39:27.647Z,98664.03
2023-01-28T15:41:57.120Z,98658.72
2023-01-28T15:44:29.597Z,98661.09
2023-01-28T15:46:58.022Z,98669.88
2023-01-28T15:49:27.976Z,98669.75
2023-01-28T15:51:56.001Z,98673.97
2023-01-28T15:54:24.911Z,98661.50
2023-01-28T15:56:54.463Z,98661.63
2023-01-28T15:59:28.410Z,98665.97
2023-01-28T16:02:19.477Z,98683.00
2023-01-28T16:05:00.695Z,98692.50
2023-01-28T16:07:30.620Z,98690.97
2023-01-28T16:09:59.919Z,98688.47
2023-01-28T16:12:29.402Z,98711.66
2023-01-28T16:14:59.029Z,98714.81
2023-01-28T16:17:28.333Z,98713.03
2023-01-28T16:19:59.961Z,98710.56
2023-01-28T16:22:33.623Z,98722.75
2023-01-28T16:25:04.026Z,98732.34
2023-01-28T16:27:32.677Z,98724.81
2023-01-28T16:30:01.323Z,98734.22
2023-01-28T16:32:30.640Z,98743.13
2023-01-28T16:35:00.118Z,98743.91
2023-01-28T16:37:28.276Z,98752.84
2023-01-28T16:39:58.116Z,98761.72
2023-01-28T16:42:38.987Z,98766.38
2023-01-28T16:45:11.379Z,98768.34
2023-01-28T16:47:39.748Z,98774.53
2023-01-28T16:50:11.746Z,98774.25
2023-01-28T16:52:41.826Z,98780.47
2023-01-28T16:55:12.382Z,98786.81
2023-01-28T16:57:40.661Z,98784.88
2023-01-28T17:00:17.037Z,98786.50
2023-01-28T17:02:47.396Z,98776.88
2023-01-28T17:05:18.211Z,98776.97
2023-01-28T17:07:48.651Z,98775.19
2023-01-28T17:10:16.976Z,98770.88
2023-01-28T17:12:45.012Z,98754.25
2023-01-28T17:15:13.329Z,98755.88
2023-01-28T17:17:41.291Z,98747.50
2023-01-28T17:20:10.990Z,98746.44
2023-01-28T17:22:40.451Z,98742.03
2023-01-28T17:25:09.463Z,98742.66
2023-01-28T17:27:37.554Z,98744.25
2023-01-28T17:30:06.503Z,98737.81
2023-01-28T17:32:34.694Z,98737.00
2023-01-28T17:35:03.047Z,98737.84
2023-01-28T17:37:33.166Z,98753.59
2023-01-28T17:40:03.180Z,98740.50
2023-01-28T17:42:37.169Z,98744.81
2023-01-28T17:45:05.954Z,98745.84
2023-01-28T17:47:34.343Z,98751.03
2023-01-28T17:50:03.038Z,98750.22
2023-01-28T17:52:31.125Z,98743.41
2023-01-28T17:55:02.247Z,98759.16
2023-01-28T17:57:30.342Z,98771.03
2023-01-28T17:59:58.556Z,98774.53
2023-01-28T18:02:26.749Z,98790.94
2023-01-28T18:04:56.077Z,98808.38
2023-01-28T18:07:25.500Z,98812.06
2023-01-28T18:09:57.096Z,98807.69
2023-01-28T18:12:26.560Z,98799.94
2023-01-28T18:14:54.660Z,98804.31
2023-01-28T18:17:32.944Z,98810.53
2023-01-28T18:20:01.151Z,98796.97
2023-01-28T18:22:31.652Z,98798.78
2023-01-28T18:24:59.739Z,98801.25
2023-01-28T18:27:32.564Z,98820.00
2023-01-28T18:30:01.122Z,98817.22
2023-01-28T18:32:29.199Z,98820.00
2023-01-28T18:34:57.224Z,98809.31
2023-01-28T18:37:28.847Z,98812.16
2023-01-28T18:39:57.456Z,98808.75
2023-01-28T18:42:26.091Z,98819.28
2023-01-28T18:44:55.499Z,98826.03
2023-01-28T18:47:23.532Z,98830.69
2023-01-28T18:49:51.567Z,98823.00
2023-01-28T18:52:20.237Z,98835.41
2023-01-28T18:54:50.460Z,98839.72
2023-01-28T18:57:20.559Z,98832.13
2023-01-28T18:59:49.571Z,98822.53
2023-01-28T19:02:20.059Z,98824.31
2023-01-28T19:04:48.541Z,98822.72
2023-01-28T19:07:16.588Z,98822.69
2023-01-28T19:09:44.753Z,98831.22
2023-01-28T19:12:13.031Z,98833.78
2023-01-28T19:14:41.508Z,98834.72
2023-01-28T19:17:10.047Z,98836.41
2023-01-28T19:19:40.624Z,98839.84
2023-01-28T19:22:10.239Z,98840.75
2023-01-28T19:24:38.611Z,98844.31
2023-01-28T19:27:08.963Z,98845.09
2023-01-28T19:29:37.260Z,98843.41
2023-01-28T19:32:05.714Z,98842.09
2023-01-28T19:34:35.375Z,98843.75
2023-01-28T19:37:05.131Z,98847.00
2023-01-28T19:39:33.313Z,98850.53
2023-01-28T19:42:02.350Z,98859.66
2023-01-28T19:44:30.389Z,98858.84
2023-01-28T19:46:58.427Z,98859.53
2023-01-28T19:49:26.439Z,98861.09
2023-01-28T19:51:54.590Z,98868.31
2023-01-28T19:54:23.987Z,98867.44
2023-01-28T19:56:52.778Z,98874.00
2023-01-28T19:59:20.811Z,98878.38
2023-01-28T20:01:48.917Z,98866.88
2023-01-28T20:04:17.081Z,98874.91
2023-01-28T20:06:45.133Z,98878.50
2023-01-28T20:09:15.864Z,98885.50
2023-01-28T20:11:45.275Z,98877.34
2023-01-28T20:14:15.033Z,98867.88
2023-01-28T20:16:43.144Z,98862.00
2023-01-28T20:19:14.734Z,98864.06
2023-01-28T20:21:42.779Z,98863.97
2023-01-28T20:24:11.992Z,98857.50
2023-01-28T20:26:40.573Z,98858.09
2023-01-28T20:29:11.025Z,98863.63
2023-01-28T20:31:39.486Z,98857.53
2023-01-28T20:34:07.710Z,98858.50
2023-01-28T20:36:35.769Z,98860.28
2023-01-28T20:39:04.545Z,98863.50
2023-01-28T20:41:32.752Z,98860.28
2023-01-28T20:44:00.781Z,98860.41
2023-01-28T20:46:31.066Z,98859.84
2023-01-28T20:49:00.550Z,98859.38
2023-01-28T20:51:29.636Z,98843.63
2023-01-28T20:53:58.265Z,98844.31
2023-01-28T20:56:26.505Z,98842.00
2023-01-28T20:58:55.762Z,98837.19
2023-01-28T21:01:24.775Z,98836.31
2023-01-28T21:03:54.245Z,98839.59
2023-01-28T21:06:22.399Z,98833.44
2023-01-28T21:08:51.514Z,98838.06
2023-01-28T21:11:19.672Z,98836.25
2023-01-28T21:13:47.989Z,98838.84
2023-01-28T21:16:21.064Z,98842.25
2023-01-28T21:18:53.691Z,98837.94
2023-01-28T21:21:24.000Z,98844.81
2023-01-28T21:23:54.699Z,98845.59
2023-01-28T21:26:22.926Z,98838.00
2023-01-28T21:28:51.042Z,98828.31
2023-01-28T21:31:20.129Z,98825.56
2023-01-28T21:33:50.524Z,98823.94
2023-01-28T21:36:18.585Z,98808.91
2023-01-28T21:38:51.776Z,98814.81
2023-01-28T21:41:20.260Z,98819.28
2023-01-28T21:43:53.416Z,98816.53
2023-01-28T21:46:21.727Z,98813.03
2023-01-28T21:48:49.934Z,98818.13
2023-01-28T21:51:35.268Z,98817.97
2023-01-28T21:54:05.175Z,98811.97
2023-01-28T21:56:33.833Z,98814.75
2023-01-28T21:59:19.170Z,98820.97
2023-01-28T22:01:47.667Z,98810.56
2023-01-28T22:04:15.704Z,98808.22
2023-01-28T22:06:47.197Z,98808.31
2023-01-28T22:09:16.889Z,98819.53
2023-01-28T22:11:45.541Z,98816.06
2023-01-28T22:14:13.625Z,98811.38
2023-01-28T22:16:41.753Z,98819.94
2023-01-28T22:19:09.863Z,98821.47
2023-01-28T22:21:41.315Z,98817.94
2023-01-28T22:24:10.995Z,98810.06
2023-01-28T22:26:40.461Z,98810.94
2023-01-28T22:29:09.480Z,98804.69
2023-01-28T22:31:37.709Z,98816.81
2023-01-28T22:34:05.899Z,98820.06
2023-01-28T22:36:37.328Z,98826.16
2023-01-28T22:39:06.254Z,98832.47
2023-01-28T22:41:34.500Z,98821.88
2023-01-28T22:44:05.689Z,98831.09
2023-01-28T22:46:34.786Z,98834.00
2023-01-28T22:49:03.244Z,98840.09
2023-01-28T22:51:32.043Z,98831.34
2023-01-28T22:54:00.410Z,98830.09
2023-01-28T22:56:29.424Z,98829.25
2023-01-28T22:58:57.672Z,98828.28
2023-01-28T23:01:27.350Z,98830.00
2023-01-28T23:03:56.200Z,98830.19
2023-01-28T23:06:25.258Z,98829.44
2023-01-28T23:08:54.395Z,98824.19
2023-01-28T23:11:28.809Z,98823.13
2023-01-28T23:14:15.267Z,98821.19
2023-01-28T23:17:02.420Z,98828.44
2023-01-28T23:19:48.695Z,98825.72
2023-01-28T23:22:36.126Z,98827.47
2023-01-28T23:25:09.019Z,98825.03
2023-01-28T23:27:41.462Z,98812.97
2023-01-28T23:30:13.820Z,98817.22
2023-01-28T23:32:45.188Z,98806.84
2023-01-28T23:35:13.345Z,98809.34
2023-01-28T23:37:41.657Z,98806.41
2023-01-28T23:40:10.964Z,98814.47
2023-01-28T23:42:38.981Z,98811.09
2023-01-28T23:45:08.201Z,98806.72
2023-01-28T23:47:37.036Z,98806.88
2023-01-28T23:50:07.041Z,98813.72
2023-01-28T23:52:35.054Z,98810.25
2023-01-28T23:55:03.168Z,98798.91
2023-01-28T23:57:31.331Z,98807.59
2023-01-28T23:59:59.283Z,98801.47
